Portland, OR (97205)

5:32 AM PDT on April 25, 2015 (GMT -0700)
Westerly, NW Portland | | Change Station
CLOSE
Current Station
Personal Weather Station
Location: Portland, OR
Elevation: 223 ft
Nearby Weather Stations

Elev 223 ft 45.52 °N, 122.70 °W | Updated 13 minutes ago

Overcast
Overcast
45.9 °F
Feels Like 46 °F
N
0.0
Wind Variable Wind from ENE

Today
High -- | Low -- °F
--% Chance of Precip.
Yesterday
High -- | Low -- °F
Precip. -- in
6:08 AM 8:09 PM
Waxing Crescent, 45% visible
Pressure 29.94 in
Visibility 10.0 miles
Clouds Scattered Clouds 900 ft
Scattered Clouds 3500 ft
Overcast 4000 ft
Windchill 46 °F
Dew Point 44 °F
Humidity 92%
Rainfall 0.02 in
Snow Depth Not available.
UV 0 out of 12
Pollen 9.20 out of 12
Air Quality Not available.
Flu Activity Sporadic
METAR KPDX 251153Z 31005KT 10SM SCT009 SCT035 OVC040 08/07 A2993 RMK AO2 RAE44 SLP136 P0002 60005 70018 T00830072 10106 20083 53004 $

More Conditions Fewer Conditions

Pressure 29.94 in
Visibility 10.0 miles
Clouds Scattered Clouds 900 ft
Scattered Clouds 3500 ft
Overcast 4000 ft
Windchill 46 °F
Dew Point 44 °F
Humidity 92%
Rainfall 0.02 in
Snow Depth Not available.
UV 0 out of 12
Pollen 9.20 out of 12
Air Quality Not available.
Flu Activity Sporadic
METAR KPDX 251153Z 31005KT 10SM SCT009 SCT035 OVC040 08/07 A2993 RMK AO2 RAE44 SLP136 P0002 60005 70018 T00830072 10106 20083 53004 $

More Conditions Fewer Conditions

10-Day Weather Forecast

Almanac

Astronomy

Apr. 25, 2015 Rise Set
Actual Time
Civil Twilight
Nautical Twilight
Astronomical Twilight
Moon
Length of Visible Light
Length of Day
Tomorrow will be .
, % of the Moon is Illuminated

Today's Extremes

State Highs State Lows

Community

WunderPhotos

Upload Photos

1,816,647 photos uploaded!

WunderBlogs® & News

Nearby

Air Quality

  Air Quality AQ Index Pollutant
Not available.

Snow Depth

Station Depth Elevation

Earthquake Activity

City Distance Mag. Time & Date
Minimum magnitude displayed is 2.5.

Coastal Water Temperatures

Place Temperature

Stations

Nearby Weather Stations

Station Location Temp. Windchill Dew Point Humidity Wind Precip. Elev Updated Type